Archival Weather

Porter County Rgnl

Valparaiso, Indiana (KVPZ)

Report from: Monday, December 11, 2023 9:56 AM CST
Current time: Wednesday, April 24, 2024 1:11 PM CDT

Current weather – Weather history – Daily summaries
Weather forecast

Temperature-2.2°C (28.0°F)
Wind chill-7.1°C (19.3°F)
Dew point-6.7°C (19.9°F)
Winds 8 kts (4.1 m/s, 9.2 mph) Southwest (230°)
Visibility10 mi. (16.1 km)
Clouds Ceiling: Broken clouds 2,100 ft. (640 m)
Overcast 2,600 ft. (792 m)
Altimeter30.21 in.Hg (1023 mB)
Relative humidity71 %
Density altitude-2,416 ft. (-736 m)
Sea-level pressure102.4 kPa (1024 mB, 30.24 in.Hg)
Remarks Fully automated report
Automated weather observing station with precipitation discriminator
Flight conditions Marginal Visual Meteorological Conditions
Raw dataKVPZ 111556Z AUTO 23008KT 10SM BKN021 OVC026 M02/M07 A3021 RMK AO2 SLP239 T10221067
An error has occurred. This application may no longer respond until reloaded. Reload 🗙